Time;durP1;ratioP1;P1;durP2;ratioP2;P2;SDS_P1;SDS_P2;PMS_P1;PMS_P2;Temp;Humidity;BMP_temperature;BMP_pressure;BME280_temperature;BME280_humidity;BME280_pressure;Samples;Min_cycle;Max_cycle;Signal;HPM_P1;HPM_P2
2023/08/26 00:06:08;;;;;;;7.25;3.60;;;15.70;97.40;;;;;;4748923;29;87664;-77
2023/08/26 00:25:57;;;;;;;;;;;;;;;;;;;;;
2023/08/26 00:29:27;;;;;;;;;;;;;;;;;;;;;
2023/08/26 00:32:17;;;;;;;8.10;3.03;;;15.20;98.10;;;;;;4724349;29;109590;-77
2023/08/26 00:42:44;;;;;;;11.57;4.05;;;15.10;98.10;;;;;;4759509;29;87427;-77
2023/08/26 00:45:48;;;;;;;13.10;3.85;;;15.00;98.10;;;;;;4712330;29;88511;-77
2023/08/26 00:49:16;;;;;;;12.53;3.97;;;14.90;98.00;;;;;;4686243;29;93375;-77
2023/08/26 02:09:49;;;;;;;7.85;2.28;;;14.20;99.60;;;;;;4840150;29;87567;-77
2023/08/26 02:12:47;;;;;;;10.35;2.60;;;14.20;99.80;;;;;;4804798;29;90755;-78
2023/08/26 02:15:23;;;;;;;9.50;2.85;;;14.20;99.70;;;;;;4807192;29;90778;-78
2023/08/26 02:17:58;;;;;;;12.63;2.55;;;14.20;99.80;;;;;;4885438;28;87707;-78
2023/08/26 02:20:52;;;;;;;6.80;2.10;;;14.20;99.80;;;;;;4887212;28;87733;-77
2023/08/26 07:01:44;;;;;;;3.65;1.10;;;15.20;98.00;;;;;;4929901;28;86610;-94
2023/08/26 07:04:30;;;;;;;2.92;0.93;;;15.30;98.40;;;;;;4918906;28;88837;-94
2023/08/26 07:16:45;;;;;;;5.80;1.30;;;15.70;97.10;;;;;;4936217;28;87228;-95
2023/08/26 07:19:10;;;;;;;2.92;0.75;;;15.80;96.80;;;;;;4917517;28;90450;-95
2023/08/26 07:21:36;;;;;;;13.07;1.20;;;15.90;96.60;;;;;;4917558;28;87540;-95
2023/08/26 07:24:25;;;;;;;5.38;1.17;;;15.90;96.00;;;;;;4916138;28;89327;-94
2023/08/26 07:29:26;;;;;;;5.60;0.75;;;16.10;96.10;;;;;;5159455;23;88580;-95
2023/08/26 07:31:52;;;;;;;5.32;0.80;;;16.10;95.80;;;;;;4946644;28;87005;-95
2023/08/26 07:34:23;;;;;;;4.28;0.80;;;16.20;95.70;;;;;;4932729;28;88077;-96
2023/08/26 07:37:06;;;;;;;4.85;0.80;;;16.20;96.00;;;;;;4912177;28;90720;-94
2023/08/26 07:39:32;;;;;;;4.57;0.73;;;16.40;95.90;;;;;;4894189;28;89467;-94
2023/08/26 07:41:57;;;;;;;5.13;0.82;;;16.40;95.80;;;;;;4912219;28;87693;-92
2023/08/26 07:44:23;;;;;;;3.65;1.10;;;16.60;96.30;;;;;;4914297;28;88210;-91
2023/08/26 07:46:50;;;;;;;6.43;0.95;;;16.70;96.20;;;;;;4880034;28;89188;-94
2023/08/26 07:49:15;;;;;;;3.95;0.80;;;16.70;95.80;;;;;;4909434;28;90630;-94
2023/08/26 07:51:41;;;;;;;3.92;0.60;;;16.80;94.40;;;;;;4909075;28;87825;-95
2023/08/26 07:54:07;;;;;;;4.75;0.70;;;16.80;94.60;;;;;;4907870;28;87859;-93
2023/08/26 07:56:34;;;;;;;4.05;0.60;;;16.90;94.30;;;;;;4911997;28;91024;-93
2023/08/26 07:59:00;;;;;;;3.72;0.70;;;16.90;94.90;;;;;;4912525;28;90377;-94
2023/08/26 08:01:25;;;;;;;15.05;1.13;;;17.00;94.30;;;;;;4906179;28;88857;-94
2023/08/26 08:03:54;;;;;;;2.00;0.60;;;17.10;94.30;;;;;;4906486;28;88372;-92
2023/08/26 08:06:19;;;;;;;5.05;0.57;;;17.20;94.30;;;;;;4893300;28;89230;-94
2023/08/26 08:08:45;;;;;;;2.17;0.55;;;17.20;94.00;;;;;;4918254;28;90079;-93
2023/08/26 08:11:11;;;;;;;4.47;0.75;;;17.30;94.60;;;;;;4919561;28;87794;-94
2023/08/26 08:13:36;;;;;;;3.92;0.63;;;17.40;94.80;;;;;;4890367;28;88042;-92
2023/08/26 08:16:02;;;;;;;1.55;0.50;;;17.40;94.90;;;;;;4909286;28;90442;-94
2023/08/26 08:18:28;;;;;;;1.70;0.70;;;17.60;94.00;;;;;;4893826;28;90283;-94
2023/08/26 08:20:54;;;;;;;4.85;1.00;;;17.70;94.10;;;;;;4919586;28;87588;-93
2023/08/26 08:23:20;;;;;;;3.92;1.02;;;17.80;93.90;;;;;;4911833;28;88620;-94
2023/08/26 08:25:46;;;;;;;3.45;1.08;;;17.80;93.80;;;;;;4914124;28;91746;-93
2023/08/26 08:28:11;;;;;;;4.90;0.93;;;17.90;93.60;;;;;;4910305;28;91288;-93
2023/08/26 08:30:37;;;;;;;3.35;0.85;;;18.00;94.00;;;;;;4897158;28;87659;-93
2023/08/26 08:33:03;;;;;;;5.57;0.70;;;18.20;93.90;;;;;;4895652;28;87932;-93
2023/08/26 08:35:32;;;;;;;3.38;0.70;;;18.30;92.40;;;;;;4897041;28;89043;-94
2023/08/26 08:37:58;;;;;;;3.05;0.70;;;18.40;92.60;;;;;;4912627;28;89114;-93
2023/08/26 08:40:23;;;;;;;3.10;0.43;;;18.40;93.30;;;;;;4915650;28;87668;-96
2023/08/26 08:42:50;;;;;;;6.50;1.00;;;18.60;93.00;;;;;;4914301;28;87937;-96
2023/08/26 08:45:16;;;;;;;3.85;1.05;;;18.70;92.30;;;;;;4890369;28;89319;-95
2023/08/26 08:47:42;;;;;;;2.60;0.93;;;18.80;91.70;;;;;;4887445;28;90072;-95
2023/08/26 08:50:09;;;;;;;3.70;0.57;;;18.90;92.10;;;;;;4898970;28;88399;-95
2023/08/26 08:52:34;;;;;;;5.60;0.70;;;19.10;92.10;;;;;;4886624;28;93534;-94
2023/08/26 08:55:00;;;;;;;3.90;0.60;;;19.20;91.10;;;;;;4891478;28;89370;-92
2023/08/26 08:57:32;;;;;;;2.15;0.47;;;19.30;90.00;;;;;;4915313;28;90941;-95
2023/08/26 08:59:58;;;;;;;4.03;0.73;;;19.40;89.40;;;;;;4911349;28;87423;-94
2023/08/26 09:02:31;;;;;;;2.72;0.43;;;19.50;90.80;;;;;;4895898;28;88895;-91
2023/08/26 09:04:58;;;;;;;1.42;0.40;;;19.60;90.70;;;;;;4919067;28;90654;-93
2023/08/26 09:07:26;;;;;;;5.38;1.13;;;19.80;89.80;;;;;;4916555;28;89813;-95
2023/08/26 09:09:53;;;;;;;2.75;0.60;;;19.90;88.30;;;;;;4895872;28;87128;-94
2023/08/26 09:12:18;;;;;;;4.75;0.80;;;19.90;89.10;;;;;;4884825;28;89283;-94
2023/08/26 09:14:44;;;;;;;4.45;0.60;;;20.00;90.10;;;;;;4910634;28;91505;-93
2023/08/26 09:17:19;;;;;;;1.73;0.60;;;20.20;89.40;;;;;;4910349;28;89712;-95
2023/08/26 09:19:58;;;;;;;4.35;0.70;;;20.30;87.40;;;;;;4887945;28;88001;-93
2023/08/26 09:22:28;;;;;;;4.50;0.75;;;20.40;85.10;;;;;;4908339;28;88313;-94
2023/08/26 09:24:59;;;;;;;3.67;0.90;;;20.40;87.50;;;;;;4894891;28;90002;-94
2023/08/26 09:27:25;;;;;;;0.82;0.40;;;20.40;86.20;;;;;;4910418;28;88941;-94
2023/08/26 09:29:52;;;;;;;4.45;0.65;;;20.40;83.70;;;;;;4911605;28;87567;-95
2023/08/26 09:32:34;;;;;;;5.25;0.50;;;20.30;85.40;;;;;;4882902;28;87203;-96
2023/08/26 09:35:17;;;;;;;1.70;0.60;;;20.40;83.80;;;;;;4911945;28;89119;-94
2023/08/26 09:37:46;;;;;;;1.23;0.63;;;20.40;85.20;;;;;;4885794;28;89176;-95
2023/08/26 09:40:15;;;;;;;2.63;0.75;;;20.50;84.90;;;;;;4911012;28;88489;-95
2023/08/26 09:42:42;;;;;;;3.65;0.52;;;20.50;85.20;;;;;;4885726;28;88939;-94
2023/08/26 09:45:13;;;;;;;4.60;0.60;;;20.60;84.00;;;;;;4886139;28;89168;-94
2023/08/26 09:47:40;;;;;;;4.72;1.10;;;20.60;86.00;;;;;;4894115;28;88917;-95
2023/08/26 09:50:06;;;;;;;3.20;0.68;;;20.70;85.30;;;;;;4911279;28;87956;-95
2023/08/26 09:52:45;;;;;;;1.75;0.52;;;20.70;83.30;;;;;;4911421;28;88054;-96
2023/08/26 09:55:11;;;;;;;2.13;0.60;;;20.60;83.00;;;;;;4885778;28;89702;-95
2023/08/26 09:57:36;;;;;;;2.00;0.60;;;20.60;82.70;;;;;;4912072;28;88771;-95
2023/08/26 10:00:03;;;;;;;1.65;0.60;;;20.60;83.00;;;;;;4895582;28;87586;-93
2023/08/26 10:02:30;;;;;;;3.97;0.63;;;20.70;83.90;;;;;;4912274;28;87655;-94
2023/08/26 10:04:59;;;;;;;5.13;0.65;;;20.80;84.30;;;;;;4910357;28;88969;-96
2023/08/26 10:07:27;;;;;;;3.63;0.50;;;20.80;80.70;;;;;;4888288;28;89551;-96
2023/08/26 10:10:15;;;;;;;3.85;0.63;;;20.80;79.80;;;;;;4906927;28;87523;-95
2023/08/26 10:12:44;;;;;;;3.97;0.57;;;20.80;81.40;;;;;;4909080;28;91909;-95
2023/08/26 10:15:16;;;;;;;4.32;1.25;;;20.80;81.30;;;;;;4892567;28;89551;-95
2023/08/26 10:17:46;;;;;;;3.28;0.73;;;20.80;82.30;;;;;;4911367;28;88436;-95
2023/08/26 10:20:12;;;;;;;4.15;0.68;;;20.80;82.20;;;;;;4885174;28;87901;-96
2023/08/26 10:22:38;;;;;;;4.35;0.68;;;20.70;82.70;;;;;;4909833;28;87956;-95
2023/08/26 10:25:05;;;;;;;5.15;1.02;;;20.80;83.50;;;;;;4893311;28;90495;-95
2023/08/26 10:27:32;;;;;;;3.33;0.63;;;20.90;83.60;;;;;;4885118;28;87678;-94
2023/08/26 10:30:00;;;;;;;6.30;0.60;;;21.00;82.00;;;;;;4893810;28;88436;-94
2023/08/26 10:32:27;;;;;;;5.15;0.85;;;21.20;83.40;;;;;;4911764;28;89621;-92
2023/08/26 10:34:58;;;;;;;4.75;0.68;;;21.30;80.60;;;;;;4892798;28;90635;-95
2023/08/26 10:37:25;;;;;;;6.90;1.05;;;21.30;81.80;;;;;;4893082;28;90219;-94
2023/08/26 10:39:51;;;;;;;2.60;0.75;;;21.40;79.70;;;;;;4909910;28;88183;-94
2023/08/26 10:42:19;;;;;;;8.02;0.75;;;21.40;79.10;;;;;;4910329;28;87639;-95
2023/08/26 10:44:55;;;;;;;4.60;0.47;;;21.60;81.80;;;;;;4888379;28;91007;-93
2023/08/26 10:47:38;;;;;;;3.70;0.50;;;21.80;80.10;;;;;;4886114;28;89638;-94
2023/08/26 10:50:40;;;;;;;2.40;0.50;;;22.00;82.20;;;;;;4883077;28;87743;-93
2023/08/26 10:53:21;;;;;;;5.65;0.80;;;22.10;77.80;;;;;;4820691;29;88905;-93
2023/08/26 10:55:54;;;;;;;2.13;0.60;;;22.10;76.40;;;;;;4890297;28;89686;-93
2023/08/26 10:58:40;;;;;;;7.00;1.00;;;22.10;79.40;;;;;;4908544;28;90328;-93
2023/08/26 11:01:05;;;;;;;4.55;0.63;;;22.30;82.10;;;;;;4887224;28;87612;-93
2023/08/26 11:03:36;;;;;;;1.38;0.50;;;22.40;75.80;;;;;;4912440;28;88613;-95
2023/08/26 11:06:09;;;;;;;5.25;0.90;;;22.20;76.40;;;;;;4893293;28;90037;-94
2023/08/26 11:08:36;;;;;;;;;;;22.30;76.50;;;;;;4908778;28;89182;-95
2023/08/26 11:11:01;;;;;;;1.38;0.47;;;22.20;74.90;;;;;;4897986;28;88321;-93
2023/08/26 11:13:27;;;;;;;3.45;0.60;;;22.10;75.40;;;;;;4916854;28;88142;-95
2023/08/26 11:15:53;;;;;;;1.50;0.57;;;22.10;75.70;;;;;;4911878;28;90470;-96
2023/08/26 11:18:20;;;;;;;4.22;0.77;;;22.10;77.10;;;;;;4894703;28;90129;-95
2023/08/26 11:21:07;;;;;;;2.65;0.45;;;22.20;76.90;;;;;;4891291;28;88779;-94
2023/08/26 11:23:34;;;;;;;2.83;0.40;;;22.20;76.10;;;;;;4899615;28;87742;-96
2023/08/26 11:26:00;;;;;;;2.10;0.90;;;22.20;75.20;;;;;;4889919;28;89121;-94
2023/08/26 11:28:27;;;;;;;1.27;0.73;;;22.40;75.70;;;;;;4909884;28;90487;-94
2023/08/26 11:30:53;;;;;;;6.47;1.15;;;22.60;73.20;;;;;;4911463;28;87752;-95
2023/08/26 11:33:21;;;;;;;4.38;0.93;;;22.70;73.20;;;;;;4890059;28;87574;-94
2023/08/26 11:35:48;;;;;;;10.13;0.88;;;22.70;73.40;;;;;;4912405;28;88206;-96
2023/08/26 11:38:15;;;;;;;1.40;0.73;;;22.70;74.60;;;;;;4913417;28;87985;-94
2023/08/26 11:40:41;;;;;;;2.72;0.60;;;22.70;75.60;;;;;;4912042;28;87661;-93
2023/08/26 11:43:10;;;;;;;3.63;0.45;;;22.80;74.50;;;;;;4894777;28;88121;-95
2023/08/26 11:45:38;;;;;;;4.50;0.60;;;22.80;72.90;;;;;;4893153;28;94212;-94
2023/08/26 11:48:04;;;;;;;2.83;0.40;;;22.80;73.20;;;;;;4891360;28;91122;-94
2023/08/26 11:50:31;;;;;;;4.40;0.70;;;22.90;72.10;;;;;;4908905;28;88107;-95
2023/08/26 11:53:00;;;;;;;2.25;0.40;;;23.00;73.80;;;;;;4913640;28;88924;-93
2023/08/26 11:55:28;;;;;;;1.45;0.50;;;23.10;72.90;;;;;;4917242;28;89309;-94
2023/08/26 11:57:54;;;;;;;3.20;0.70;;;23.00;70.90;;;;;;4916241;28;90451;-94
2023/08/26 12:00:21;;;;;;;2.53;0.50;;;22.90;70.00;;;;;;4891071;28;87468;-94
2023/08/26 12:02:51;;;;;;;1.30;0.52;;;22.80;71.70;;;;;;4892806;28;86554;-94
2023/08/26 12:05:18;;;;;;;3.22;0.70;;;22.90;71.10;;;;;;4898987;28;88604;-94
2023/08/26 12:07:54;;;;;;;3.22;0.45;;;22.90;70.30;;;;;;4895784;28;88794;-93
2023/08/26 12:10:20;;;;;;;3.15;0.60;;;22.90;73.80;;;;;;4884588;28;88672;-95
2023/08/26 12:12:47;;;;;;;3.47;0.65;;;23.10;73.90;;;;;;4898481;28;89666;-94
2023/08/26 12:15:17;;;;;;;1.67;0.50;;;23.30;70.50;;;;;;4894811;28;89204;-93
2023/08/26 12:17:47;;;;;;;2.25;0.55;;;23.50;73.80;;;;;;4917775;28;88678;-96
2023/08/26 12:20:20;;;;;;;2.75;0.40;;;23.60;71.90;;;;;;4908529;28;87613;-93
2023/08/26 12:22:48;;;;;;;1.77;0.43;;;23.60;67.00;;;;;;4915506;28;87519;-95
2023/08/26 12:25:36;;;;;;;2.75;0.60;;;23.50;68.60;;;;;;4916417;28;88461;-96
2023/08/26 12:28:12;;;;;;;1.80;0.45;;;23.30;69.80;;;;;;4902099;28;87407;-94
2023/08/26 12:30:40;;;;;;;1.92;0.40;;;23.20;69.30;;;;;;4924653;28;87560;-96
2023/08/26 12:33:07;;;;;;;2.00;0.50;;;23.20;69.20;;;;;;4922268;28;87480;-95
2023/08/26 12:35:38;;;;;;;1.98;0.50;;;23.30;71.20;;;;;;4895702;28;91463;-91
2023/08/26 12:38:06;;;;;;;1.27;0.40;;;23.40;71.10;;;;;;4921140;28;89358;-95
2023/08/26 12:40:33;;;;;;;0.70;0.40;;;23.40;70.40;;;;;;4885559;28;87197;-92
2023/08/26 12:43:00;;;;;;;2.45;0.52;;;23.50;69.90;;;;;;4892294;28;88450;-92
2023/08/26 12:45:27;;;;;;;2.30;0.60;;;23.40;68.60;;;;;;4895335;28;88086;-93
2023/08/26 12:47:53;;;;;;;1.25;0.40;;;23.30;67.70;;;;;;4917549;28;90436;-93
2023/08/26 12:50:20;;;;;;;2.20;0.50;;;23.20;67.60;;;;;;4914113;28;87732;-94
2023/08/26 12:52:45;;;;;;;1.90;0.40;;;23.10;68.40;;;;;;4917679;28;89099;-92
2023/08/26 12:55:12;;;;;;;4.53;0.50;;;23.00;69.70;;;;;;4895391;28;88729;-94
2023/08/26 12:57:38;;;;;;;3.08;0.68;;;22.90;69.30;;;;;;4912286;28;88104;-96
2023/08/26 13:00:04;;;;;;;2.88;0.50;;;22.80;70.60;;;;;;4888153;28;88535;-95
2023/08/26 13:02:32;;;;;;;2.08;0.60;;;22.70;70.00;;;;;;4888398;28;89515;-96
2023/08/26 13:04:58;;;;;;;1.20;0.40;;;22.70;71.00;;;;;;4886483;28;91457;-94
2023/08/26 13:07:23;;;;;;;1.55;0.40;;;22.70;72.40;;;;;;4911591;28;89942;-95
2023/08/26 13:09:49;;;;;;;2.88;0.50;;;22.80;70.20;;;;;;4884956;28;87597;-95
2023/08/26 13:12:16;;;;;;;1.73;0.40;;;22.80;72.20;;;;;;4911406;28;90310;-93
2023/08/26 13:14:41;;;;;;;4.35;0.80;;;22.90;71.80;;;;;;4910551;28;90552;-94
2023/08/26 13:17:07;;;;;;;2.78;0.50;;;23.10;71.50;;;;;;4889054;28;89354;-96
2023/08/26 13:19:33;;;;;;;1.30;0.43;;;23.40;71.70;;;;;;4907896;28;87525;-95
2023/08/26 13:21:58;;;;;;;0.63;0.40;;;23.70;67.70;;;;;;4897317;28;88294;-95
2023/08/26 13:24:24;;;;;;;2.25;0.50;;;24.10;69.00;;;;;;4886188;28;90232;-92
2023/08/26 13:26:50;;;;;;;2.58;0.50;;;24.20;65.70;;;;;;4896000;28;89936;-93
2023/08/26 13:29:16;;;;;;;1.27;0.40;;;24.20;64.80;;;;;;4913301;28;87843;-92
2023/08/26 13:31:41;;;;;;;1.83;0.45;;;24.30;64.70;;;;;;4912908;28;89555;-93
2023/08/26 13:34:07;;;;;;;2.03;0.43;;;24.40;65.30;;;;;;4912606;28;89474;-94
2023/08/26 13:36:37;;;;;;;2.80;0.52;;;24.60;66.20;;;;;;4886919;28;89264;-91
2023/08/26 13:39:11;;;;;;;1.00;0.32;;;24.70;63.90;;;;;;4915109;28;87483;-93
2023/08/26 13:41:37;;;;;;;3.22;0.45;;;25.00;67.30;;;;;;4895334;28;87650;-94
2023/08/26 13:44:03;;;;;;;1.08;0.40;;;25.10;63.90;;;;;;4888803;28;88745;-94
2023/08/26 13:46:28;;;;;;;4.25;0.88;;;25.30;60.90;;;;;;4912061;28;87912;-92
2023/08/26 13:48:56;;;;;;;1.35;0.43;;;25.20;63.10;;;;;;4914484;28;88486;-93
2023/08/26 13:51:21;;;;;;;0.93;0.40;;;25.20;62.90;;;;;;4913119;28;88136;-91
2023/08/26 13:53:47;;;;;;;1.35;0.40;;;25.40;61.00;;;;;;4911775;28;89255;-91
2023/08/26 13:56:13;;;;;;;1.42;0.60;;;25.50;61.40;;;;;;4912373;28;90074;-87
2023/08/26 13:58:38;;;;;;;1.45;0.50;;;25.50;61.20;;;;;;4912501;28;87294;-90
2023/08/26 14:01:04;;;;;;;1.27;0.60;;;25.40;62.30;;;;;;4914273;28;89537;-88
2023/08/26 14:03:30;;;;;;;0.47;0.45;;;25.50;62.40;;;;;;4913594;28;90099;-91
2023/08/26 14:05:55;;;;;;;3.50;0.73;;;25.60;61.20;;;;;;4901583;28;90294;-91
2023/08/26 14:08:24;;;;;;;2.97;0.57;;;25.70;63.00;;;;;;4887886;28;87595;-91
2023/08/26 14:10:53;;;;;;;1.88;0.50;;;26.00;60.40;;;;;;4912374;28;88176;-88
2023/08/26 14:13:19;;;;;;;2.17;0.50;;;26.30;62.70;;;;;;4910721;28;90746;-89
2023/08/26 14:15:46;;;;;;;2.03;0.38;;;26.60;60.40;;;;;;4910367;28;90175;-91
2023/08/26 14:18:12;;;;;;;0.32;0.30;;;26.70;57.90;;;;;;4910701;28;88069;-89
2023/08/26 14:20:38;;;;;;;0.57;0.40;;;26.80;58.00;;;;;;4911370;28;89409;-89
2023/08/26 14:23:04;;;;;;;1.85;0.50;;;26.80;58.70;;;;;;4885436;28;89642;-89
2023/08/26 14:25:30;;;;;;;3.58;0.70;;;27.00;59.30;;;;;;4895512;28;90338;-94
2023/08/26 14:27:56;;;;;;;4.57;0.50;;;27.10;58.60;;;;;;4901951;28;87728;-89
2023/08/26 14:30:22;;;;;;;1.15;0.40;;;27.10;58.30;;;;;;4907523;28;88248;-90
2023/08/26 14:32:49;;;;;;;1.08;0.30;;;27.20;55.10;;;;;;4919030;28;90724;-90
2023/08/26 14:35:15;;;;;;;2.00;0.50;;;27.30;56.70;;;;;;4877962;28;88855;-92
2023/08/26 14:37:41;;;;;;;2.72;0.60;;;27.30;54.50;;;;;;4894318;28;88896;-91
2023/08/26 14:40:07;;;;;;;2.05;0.60;;;27.50;57.40;;;;;;4906680;28;89266;-90
2023/08/26 14:42:33;;;;;;;1.65;0.60;;;27.80;56.90;;;;;;4888884;28;91063;-92
2023/08/26 14:44:59;;;;;;;2.00;0.40;;;27.90;54.40;;;;;;4908920;28;91122;-91
2023/08/26 14:47:24;;;;;;;1.50;0.43;;;27.70;53.90;;;;;;4908339;28;87703;-92
2023/08/26 14:49:50;;;;;;;3.45;0.40;;;27.70;54.80;;;;;;4894958;28;87563;-91
2023/08/26 14:52:15;;;;;;;1.40;0.30;;;28.00;53.90;;;;;;4911179;28;89505;-93
2023/08/26 14:54:41;;;;;;;1.20;0.40;;;28.10;52.60;;;;;;4894075;28;90618;-93
2023/08/26 14:57:07;;;;;;;3.28;0.43;;;28.10;51.30;;;;;;4911581;28;87449;-94
2023/08/26 14:59:34;;;;;;;2.78;0.40;;;27.80;52.00;;;;;;4912632;28;89672;-94
2023/08/26 15:02:00;;;;;;;1.25;0.43;;;27.30;52.40;;;;;;4889185;28;89971;-91
2023/08/26 15:04:26;;;;;;;1.25;0.60;;;26.90;53.30;;;;;;4912253;28;89490;-94
2023/08/26 15:06:51;;;;;;;0.50;0.30;;;26.70;54.70;;;;;;4888606;28;88035;-94
2023/08/26 15:09:19;;;;;;;4.72;0.65;;;26.60;54.40;;;;;;4912414;28;87771;-92
2023/08/26 15:11:44;;;;;;;1.52;0.60;;;26.50;54.10;;;;;;4913675;28;88110;-94
2023/08/26 15:14:10;;;;;;;2.80;0.40;;;26.40;54.70;;;;;;4913667;28;88260;-92
2023/08/26 15:16:36;;;;;;;2.40;0.50;;;26.30;56.70;;;;;;4894608;28;87950;-92
2023/08/26 15:19:01;;;;;;;1.85;0.50;;;26.20;56.90;;;;;;4896577;28;87263;-92
2023/08/26 15:21:27;;;;;;;0.68;0.30;;;26.20;59.20;;;;;;4911166;28;90746;-91
2023/08/26 15:23:53;;;;;;;1.88;0.38;;;26.20;56.50;;;;;;4911532;28;90722;-94
2023/08/26 15:26:18;;;;;;;1.50;0.60;;;26.00;54.50;;;;;;4910757;28;88724;-92
2023/08/26 15:28:45;;;;;;;0.52;0.30;;;25.90;55.10;;;;;;4916285;28;87871;-89
2023/08/26 15:31:11;;;;;;;1.85;0.40;;;25.70;54.80;;;;;;4917983;28;88201;-88
2023/08/26 15:33:37;;;;;;;0.50;0.30;;;25.60;54.10;;;;;;4917555;28;89171;-88
2023/08/26 15:36:03;;;;;;;1.20;0.40;;;25.50;57.00;;;;;;4900082;28;87609;-89
2023/08/26 15:38:29;;;;;;;1.88;0.52;;;25.60;57.00;;;;;;4901796;28;89087;-90
2023/08/26 15:41:00;;;;;;;2.33;0.40;;;25.60;55.10;;;;;;4917419;28;90447;-89
2023/08/26 15:43:27;;;;;;;1.65;0.25;;;25.60;56.60;;;;;;4902049;28;90349;-89
2023/08/26 15:45:56;;;;;;;3.90;0.30;;;25.50;56.80;;;;;;4918236;28;87376;-89
2023/08/26 15:48:22;;;;;;;1.98;0.50;;;25.50;57.70;;;;;;4892502;28;89797;-86
2023/08/26 15:50:48;;;;;;;2.38;0.55;;;25.40;58.20;;;;;;4891763;28;91501;-90
2023/08/26 15:53:16;;;;;;;2.72;0.63;;;25.30;59.00;;;;;;4891137;28;91305;-90
2023/08/26 15:55:42;;;;;;;2.50;0.47;;;25.20;59.90;;;;;;4917716;28;87768;-90
2023/08/26 15:58:09;;;;;;;2.58;0.55;;;25.10;60.50;;;;;;4893425;28;89084;-90
2023/08/26 16:00:35;;;;;;;5.20;0.70;;;25.10;61.70;;;;;;4917411;28;93445;-89
2023/08/26 16:03:01;;;;;;;2.35;0.50;;;25.30;62.10;;;;;;4900930;28;88646;-87
2023/08/26 16:05:27;;;;;;;2.47;0.40;;;25.50;62.20;;;;;;4916796;28;87949;-87
2023/08/26 16:07:53;;;;;;;2.88;0.30;;;25.70;59.90;;;;;;4916693;28;88278;-86
2023/08/26 16:10:19;;;;;;;4.05;0.70;;;25.90;59.90;;;;;;4917253;28;90678;-87
2023/08/26 16:12:44;;;;;;;0.95;0.40;;;26.10;59.20;;;;;;4901831;28;88856;-87
2023/08/26 16:15:10;;;;;;;0.55;0.30;;;26.10;56.70;;;;;;4916540;28;89081;-86
2023/08/26 16:17:36;;;;;;;1.40;0.52;;;25.90;54.20;;;;;;4916214;28;87943;-86
2023/08/26 16:20:01;;;;;;;4.03;0.50;;;25.60;54.30;;;;;;4915650;28;88117;-87
2023/08/26 16:22:28;;;;;;;0.43;0.40;;;25.30;55.50;;;;;;4916150;28;88759;-86
2023/08/26 16:24:53;;;;;;;0.75;0.30;;;25.10;56.30;;;;;;4917788;28;87519;-86
2023/08/26 16:27:20;;;;;;;1.48;0.55;;;24.90;56.90;;;;;;4917326;28;88378;-86
2023/08/26 16:29:45;;;;;;;1.75;0.50;;;24.70;57.70;;;;;;4899757;28;90903;-86
2023/08/26 16:32:12;;;;;;;1.08;0.30;;;24.60;59.20;;;;;;4917909;28;88194;-86
2023/08/26 16:34:42;;;;;;;0.88;0.30;;;24.40;59.00;;;;;;4919383;28;87964;-90
2023/08/26 16:37:07;;;;;;;3.03;0.50;;;24.10;60.20;;;;;;4910840;28;88147;-90
2023/08/26 16:39:37;;;;;;;1.13;0.50;;;23.90;60.10;;;;;;4918924;28;91697;-89
2023/08/26 16:42:03;;;;;;;0.75;0.30;;;23.60;61.40;;;;;;4896319;28;89465;-90
2023/08/26 16:44:29;;;;;;;1.00;0.50;;;23.40;61.30;;;;;;4912210;28;87386;-90
2023/08/26 16:46:55;;;;;;;0.93;0.30;;;23.30;62.00;;;;;;4901322;28;87570;-89
2023/08/26 16:49:21;;;;;;;1.35;0.52;;;23.20;62.40;;;;;;4902489;28;88931;-89
2023/08/26 16:51:51;;;;;;;1.67;0.43;;;23.10;63.80;;;;;;4908910;28;88889;-89
2023/08/26 16:54:18;;;;;;;2.90;0.47;;;23.30;62.30;;;;;;4908752;28;87386;-90
2023/08/26 16:56:43;;;;;;;1.17;0.50;;;23.40;62.90;;;;;;4913194;28;88420;-89
2023/08/26 16:59:09;;;;;;;1.67;0.40;;;23.70;62.20;;;;;;4922243;28;90501;-89
2023/08/26 17:01:35;;;;;;;1.23;0.35;;;24.00;61.90;;;;;;4911190;28;90325;-89
2023/08/26 17:04:01;;;;;;;1.58;0.50;;;24.00;60.80;;;;;;4921388;28;88433;-88
2023/08/26 17:06:27;;;;;;;1.55;0.38;;;24.10;60.20;;;;;;4918878;28;87405;-89
2023/08/26 17:08:53;;;;;;;0.73;0.40;;;24.10;60.70;;;;;;4913911;28;89494;-89
2023/08/26 17:11:18;;;;;;;2.97;0.40;;;24.10;59.90;;;;;;4917083;28;88874;-89
2023/08/26 17:13:44;;;;;;;1.05;0.30;;;24.20;61.00;;;;;;4918472;28;87946;-89
2023/08/26 17:16:10;;;;;;;1.00;0.30;;;24.40;60.60;;;;;;4902108;28;89234;-89
2023/08/26 17:18:35;;;;;;;2.55;0.40;;;24.60;59.10;;;;;;4922608;28;94733;-89
2023/08/26 17:21:01;;;;;;;1.23;0.32;;;24.80;59.30;;;;;;4893946;28;90798;-89
2023/08/26 17:23:27;;;;;;;0.93;0.30;;;25.10;59.10;;;;;;4918344;28;87826;-89
2023/08/26 17:25:52;;;;;;;4.38;1.10;;;25.30;58.00;;;;;;4913326;28;89220;-89
2023/08/26 17:28:18;;;;;;;0.80;0.32;;;25.60;58.00;;;;;;4900116;28;91112;-88
2023/08/26 17:30:43;;;;;;;0.98;0.55;;;25.80;56.80;;;;;;4923801;28;90939;-90
2023/08/26 17:33:09;;;;;;;1.75;0.40;;;25.70;57.10;;;;;;4917913;28;87688;-89
2023/08/26 17:35:36;;;;;;;0.88;0.30;;;25.60;57.80;;;;;;4891486;28;89546;-88
2023/08/26 17:38:07;;;;;;;1.35;0.47;;;25.50;56.70;;;;;;4921138;28;91409;-90
2023/08/26 17:40:33;;;;;;;0.82;0.43;;;25.20;57.30;;;;;;4873083;28;89309;-88
2023/08/26 17:42:59;;;;;;;3.85;0.40;;;24.90;58.00;;;;;;4883847;28;87260;-89
2023/08/26 17:45:25;;;;;;;2.15;0.50;;;24.50;59.90;;;;;;4895566;28;89160;-88
2023/08/26 17:47:50;;;;;;;2.65;0.40;;;24.20;60.00;;;;;;4895536;28;88983;-88
2023/08/26 17:50:16;;;;;;;1.88;0.40;;;23.90;61.20;;;;;;4910721;28;90142;-89
2023/08/26 17:52:42;;;;;;;1.65;0.40;;;23.60;62.80;;;;;;4884656;28;88776;-89
2023/08/26 17:55:09;;;;;;;2.08;0.38;;;23.30;62.90;;;;;;4912616;28;88932;-89
2023/08/26 17:57:35;;;;;;;0.90;0.30;;;23.10;64.50;;;;;;4911724;28;95204;-87
2023/08/26 18:00:03;;;;;;;2.88;0.55;;;22.90;65.20;;;;;;4912345;28;90355;-89
2023/08/26 18:02:29;;;;;;;2.58;0.43;;;22.80;65.90;;;;;;4888656;28;87448;-89
2023/08/26 18:04:55;;;;;;;1.23;0.50;;;22.70;65.80;;;;;;4912373;28;89359;-89
2023/08/26 18:07:21;;;;;;;1.17;0.45;;;22.70;66.50;;;;;;4911754;28;90993;-89
2023/08/26 18:09:46;;;;;;;4.10;0.50;;;22.70;66.70;;;;;;4912617;28;89221;-89
2023/08/26 18:12:12;;;;;;;2.30;0.60;;;22.70;67.40;;;;;;4910932;28;87738;-89
2023/08/26 18:14:38;;;;;;;0.98;0.40;;;22.60;68.70;;;;;;4912398;28;89543;-89
2023/08/26 18:17:03;;;;;;;1.17;0.40;;;22.50;68.60;;;;;;4909785;28;90122;-88
2023/08/26 18:19:29;;;;;;;1.42;0.40;;;22.40;67.50;;;;;;4910904;28;91189;-88
2023/08/26 18:21:55;;;;;;;1.75;0.40;;;22.20;67.80;;;;;;4916960;28;88033;-88
2023/08/26 18:24:45;;;;;;;1.52;0.57;;;21.90;67.90;;;;;;4914895;28;88434;-88
2023/08/26 18:27:10;;;;;;;1.15;0.38;;;21.50;68.50;;;;;;4914103;28;90370;-90
2023/08/26 18:29:40;;;;;;;3.25;0.65;;;21.20;69.40;;;;;;4911939;28;89940;-90
2023/08/26 18:32:07;;;;;;;2.53;0.40;;;21.10;70.20;;;;;;4912901;28;87944;-90
2023/08/26 18:34:34;;;;;;;1.42;0.50;;;20.90;70.50;;;;;;4911799;28;88209;-90
2023/08/26 18:36:59;;;;;;;1.25;0.50;;;20.80;71.20;;;;;;4884034;28;88977;-90
2023/08/26 18:39:25;;;;;;;0.60;0.50;;;20.70;71.60;;;;;;4885279;28;88688;-91
2023/08/26 18:41:51;;;;;;;1.90;0.38;;;20.60;73.10;;;;;;4895261;28;88626;-91
2023/08/26 18:46:44;;;;;;;1.65;0.40;;;20.40;74.40;;;;;;4863239;28;90709;-90
2023/08/26 18:49:10;;;;;;;1.50;0.40;;;20.30;75.10;;;;;;4896678;28;89537;-90
2023/08/26 18:51:36;;;;;;;2.08;0.70;;;20.30;75.80;;;;;;4912374;28;87878;-90
2023/08/26 18:54:01;;;;;;;4.03;0.47;;;20.10;76.00;;;;;;4893188;28;88747;-89
2023/08/26 18:56:27;;;;;;;1.38;0.57;;;20.00;77.30;;;;;;4885840;28;89436;-90
2023/08/26 18:58:53;;;;;;;2.75;0.47;;;20.00;79.00;;;;;;4911523;28;89478;-90
2023/08/26 19:01:18;;;;;;;1.73;0.40;;;19.90;79.60;;;;;;4885058;28;87699;-90
2023/08/26 19:03:44;;;;;;;1.13;0.38;;;19.80;80.40;;;;;;4912187;28;89369;-90
2023/08/26 19:06:09;;;;;;;3.85;0.40;;;19.80;80.80;;;;;;4908646;28;90872;-90
2023/08/26 19:08:35;;;;;;;0.82;0.40;;;19.70;81.20;;;;;;4912462;28;87658;-89
2023/08/26 19:11:01;;;;;;;1.83;0.47;;;19.60;81.50;;;;;;4911427;28;87739;-89
2023/08/26 19:13:26;;;;;;;1.08;0.40;;;19.60;82.40;;;;;;4911083;28;88243;-90
2023/08/26 19:15:55;;;;;;;1.42;0.80;;;19.50;82.70;;;;;;4886186;28;89268;-90
2023/08/26 19:18:21;;;;;;;2.90;0.65;;;19.40;83.30;;;;;;4909295;28;88995;-90
2023/08/26 19:20:48;;;;;;;1.73;0.40;;;19.30;84.00;;;;;;4888583;28;87673;-90
2023/08/26 19:23:14;;;;;;;3.92;0.50;;;19.20;84.80;;;;;;4908370;28;89591;-90
2023/08/26 19:25:40;;;;;;;3.60;0.73;;;19.10;85.40;;;;;;4884960;28;89183;-90
2023/08/26 19:28:06;;;;;;;2.85;0.60;;;19.00;86.50;;;;;;4911444;28;90564;-90
2023/08/26 19:30:32;;;;;;;1.88;0.70;;;18.90;87.00;;;;;;4910289;28;88655;-90
2023/08/26 19:32:57;;;;;;;1.48;0.60;;;18.80;88.10;;;;;;4911145;28;89362;-92
2023/08/26 19:35:23;;;;;;;1.75;0.88;;;18.50;85.50;;;;;;4911276;28;89442;-91